sensor_id;sensor_type;location;lat;lon;timestamp;temperature;humidity
21244;DHT22;10780;50.942;4.028;2023-01-08T00:01:20;10.80;99.90
21244;DHT22;10780;50.942;4.028;2023-01-08T00:03:46;10.80;99.90
21244;DHT22;10780;50.942;4.028;2023-01-08T00:06:14;10.70;99.90
21244;DHT22;10780;50.942;4.028;2023-01-08T00:08:40;10.60;99.90
21244;DHT22;10780;50.942;4.028;2023-01-08T00:11:07;10.60;99.90
21244;DHT22;10780;50.942;4.028;2023-01-08T00:13:33;10.50;99.90
21244;DHT22;10780;50.942;4.028;2023-01-08T00:16:06;10.40;99.90
21244;DHT22;10780;50.942;4.028;2023-01-08T00:18:33;10.30;99.90
21244;DHT22;10780;50.942;4.028;2023-01-08T00:20:59;10.30;99.90
21244;DHT22;10780;50.942;4.028;2023-01-08T00:23:26;10.20;99.90
21244;DHT22;10780;50.942;4.028;2023-01-08T00:25:52;10.20;99.90
21244;DHT22;10780;50.942;4.028;2023-01-08T00:28:18;10.10;99.90
21244;DHT22;10780;50.942;4.028;2023-01-08T00:30:46;10.10;99.90
21244;DHT22;10780;50.942;4.028;2023-01-08T00:33:12;10.10;99.90
21244;DHT22;10780;50.942;4.028;2023-01-08T00:35:38;10.00;99.90
21244;DHT22;10780;50.942;4.028;2023-01-08T00:38:04;10.00;99.90
21244;DHT22;10780;50.942;4.028;2023-01-08T00:40:30;9.90;99.90
21244;DHT22;10780;50.942;4.028;2023-01-08T00:42:56;9.90;99.90
21244;DHT22;10780;50.942;4.028;2023-01-08T00:45:22;9.90;99.90
21244;DHT22;10780;50.942;4.028;2023-01-08T00:47:48;10.00;99.90
21244;DHT22;10780;50.942;4.028;2023-01-08T00:50:13;10.00;99.90
21244;DHT22;10780;50.942;4.028;2023-01-08T00:52:39;9.90;99.90
21244;DHT22;10780;50.942;4.028;2023-01-08T00:55:05;9.90;99.90
21244;DHT22;10780;50.942;4.028;2023-01-08T00:57:35;10.00;99.90
21244;DHT22;10780;50.942;4.028;2023-01-08T01:00:02;10.00;99.90
21244;DHT22;10780;50.942;4.028;2023-01-08T01:02:27;9.90;99.90
21244;DHT22;10780;50.942;4.028;2023-01-08T01:04:53;9.90;99.90
21244;DHT22;10780;50.942;4.028;2023-01-08T01:07:19;10.00;99.90
21244;DHT22;10780;50.942;4.028;2023-01-08T01:09:44;9.90;99.90
21244;DHT22;10780;50.942;4.028;2023-01-08T01:12:10;9.90;99.90
21244;DHT22;10780;50.942;4.028;2023-01-08T01:14:36;9.90;99.90
21244;DHT22;10780;50.942;4.028;2023-01-08T01:17:03;9.90;99.90
21244;DHT22;10780;50.942;4.028;2023-01-08T01:19:29;9.90;99.90
21244;DHT22;10780;50.942;4.028;2023-01-08T01:21:54;10.00;99.90
21244;DHT22;10780;50.942;4.028;2023-01-08T01:24:20;10.10;99.90
21244;DHT22;10780;50.942;4.028;2023-01-08T01:26:52;10.10;99.90
21244;DHT22;10780;50.942;4.028;2023-01-08T01:29:17;10.00;99.90
21244;DHT22;10780;50.942;4.028;2023-01-08T01:31:43;10.00;99.90
21244;DHT22;10780;50.942;4.028;2023-01-08T01:34:09;10.10;99.90
21244;DHT22;10780;50.942;4.028;2023-01-08T01:36:36;10.00;99.90
21244;DHT22;10780;50.942;4.028;2023-01-08T01:39:02;9.80;99.90
21244;DHT22;10780;50.942;4.028;2023-01-08T01:41:38;9.70;99.90
21244;DHT22;10780;50.942;4.028;2023-01-08T01:44:35;9.80;99.90
21244;DHT22;10780;50.942;4.028;2023-01-08T01:47:10;9.80;99.90
21244;DHT22;10780;50.942;4.028;2023-01-08T01:49:38;9.70;99.90
21244;DHT22;10780;50.942;4.028;2023-01-08T01:52:06;9.60;99.90
21244;DHT22;10780;50.942;4.028;2023-01-08T01:54:34;9.50;99.90
21244;DHT22;10780;50.942;4.028;2023-01-08T01:57:00;9.50;99.90
21244;DHT22;10780;50.942;4.028;2023-01-08T01:59:27;9.50;99.90
21244;DHT22;10780;50.942;4.028;2023-01-08T02:01:53;9.60;99.90
21244;DHT22;10780;50.942;4.028;2023-01-08T02:04:19;9.60;99.90
21244;DHT22;10780;50.942;4.028;2023-01-08T02:07:04;9.60;99.90
21244;DHT22;10780;50.942;4.028;2023-01-08T02:09:48;9.70;99.90
21244;DHT22;10780;50.942;4.028;2023-01-08T02:12:25;9.80;99.90
21244;DHT22;10780;50.942;4.028;2023-01-08T02:15:18;9.90;99.90
21244;DHT22;10780;50.942;4.028;2023-01-08T02:18:18;9.90;99.90
21244;DHT22;10780;50.942;4.028;2023-01-08T02:21:00;9.80;99.90
21244;DHT22;10780;50.942;4.028;2023-01-08T02:29:03;10.00;99.90
21244;DHT22;10780;50.942;4.028;2023-01-08T02:31:31;10.00;99.90
21244;DHT22;10780;50.942;4.028;2023-01-08T02:33:58;10.10;99.90
21244;DHT22;10780;50.942;4.028;2023-01-08T02:36:39;10.10;99.90
21244;DHT22;10780;50.942;4.028;2023-01-08T02:47:00;10.10;99.90
21244;DHT22;10780;50.942;4.028;2023-01-08T02:49:30;10.10;99.90
21244;DHT22;10780;50.942;4.028;2023-01-08T02:51:57;10.10;99.90
21244;DHT22;10780;50.942;4.028;2023-01-08T02:54:28;10.00;99.90
21244;DHT22;10780;50.942;4.028;2023-01-08T02:57:10;10.10;99.90
21244;DHT22;10780;50.942;4.028;2023-01-08T02:59:37;10.00;99.90
21244;DHT22;10780;50.942;4.028;2023-01-08T03:02:04;9.90;99.90
21244;DHT22;10780;50.942;4.028;2023-01-08T03:04:35;9.90;99.90
21244;DHT22;10780;50.942;4.028;2023-01-08T03:07:02;9.90;99.90
21244;DHT22;10780;50.942;4.028;2023-01-08T03:09:28;10.00;99.90
21244;DHT22;10780;50.942;4.028;2023-01-08T03:12:03;9.80;99.90
21244;DHT22;10780;50.942;4.028;2023-01-08T03:14:49;9.80;99.90
21244;DHT22;10780;50.942;4.028;2023-01-08T03:17:30;9.70;99.90
21244;DHT22;10780;50.942;4.028;2023-01-08T03:20:02;9.60;99.90
21244;DHT22;10780;50.942;4.028;2023-01-08T03:22:30;9.60;99.90
21244;DHT22;10780;50.942;4.028;2023-01-08T03:24:58;9.60;99.90
21244;DHT22;10780;50.942;4.028;2023-01-08T03:27:27;9.50;99.90
21244;DHT22;10780;50.942;4.028;2023-01-08T03:29:55;9.60;99.90
21244;DHT22;10780;50.942;4.028;2023-01-08T03:32:23;9.60;99.90
21244;DHT22;10780;50.942;4.028;2023-01-08T03:34:51;9.60;99.90
21244;DHT22;10780;50.942;4.028;2023-01-08T03:37:24;9.70;99.90
21244;DHT22;10780;50.942;4.028;2023-01-08T03:39:59;9.70;99.90
21244;DHT22;10780;50.942;4.028;2023-01-08T03:42:30;9.70;99.90
21244;DHT22;10780;50.942;4.028;2023-01-08T03:44:56;9.70;99.90
21244;DHT22;10780;50.942;4.028;2023-01-08T03:47:23;9.80;99.90
21244;DHT22;10780;50.942;4.028;2023-01-08T03:49:50;9.80;99.90
21244;DHT22;10780;50.942;4.028;2023-01-08T03:52:22;9.70;99.90
21244;DHT22;10780;50.942;4.028;2023-01-08T03:54:48;9.70;99.90
21244;DHT22;10780;50.942;4.028;2023-01-08T03:57:14;9.60;99.90
21244;DHT22;10780;50.942;4.028;2023-01-08T03:59:39;9.60;99.90
21244;DHT22;10780;50.942;4.028;2023-01-08T04:02:05;9.40;99.90
21244;DHT22;10780;50.942;4.028;2023-01-08T04:04:30;9.30;99.90
21244;DHT22;10780;50.942;4.028;2023-01-08T04:06:56;9.20;99.90
21244;DHT22;10780;50.942;4.028;2023-01-08T04:09:22;9.10;99.90
21244;DHT22;10780;50.942;4.028;2023-01-08T04:11:47;9.00;99.90
21244;DHT22;10780;50.942;4.028;2023-01-08T04:14:13;9.00;99.90
21244;DHT22;10780;50.942;4.028;2023-01-08T04:16:38;8.80;99.90
21244;DHT22;10780;50.942;4.028;2023-01-08T04:19:04;8.70;99.90
21244;DHT22;10780;50.942;4.028;2023-01-08T04:21:30;8.60;99.90
21244;DHT22;10780;50.942;4.028;2023-01-08T04:23:56;8.50;99.90
21244;DHT22;10780;50.942;4.028;2023-01-08T04:26:21;8.40;99.90
21244;DHT22;10780;50.942;4.028;2023-01-08T04:28:47;8.30;99.90
21244;DHT22;10780;50.942;4.028;2023-01-08T04:31:12;8.30;99.90
21244;DHT22;10780;50.942;4.028;2023-01-08T04:33:38;8.20;99.90
21244;DHT22;10780;50.942;4.028;2023-01-08T04:36:04;8.10;99.90
21244;DHT22;10780;50.942;4.028;2023-01-08T04:38:30;8.10;99.90
21244;DHT22;10780;50.942;4.028;2023-01-08T04:41:00;8.10;99.90
21244;DHT22;10780;50.942;4.028;2023-01-08T04:43:26;8.10;99.90
21244;DHT22;10780;50.942;4.028;2023-01-08T04:45:55;8.10;99.90
21244;DHT22;10780;50.942;4.028;2023-01-08T04:48:21;8.00;99.90
21244;DHT22;10780;50.942;4.028;2023-01-08T04:50:47;8.00;99.90
21244;DHT22;10780;50.942;4.028;2023-01-08T04:53:12;8.10;99.90
21244;DHT22;10780;50.942;4.028;2023-01-08T04:55:38;8.00;99.90
21244;DHT22;10780;50.942;4.028;2023-01-08T04:58:04;8.00;99.90
21244;DHT22;10780;50.942;4.028;2023-01-08T05:00:29;8.00;99.90
21244;DHT22;10780;50.942;4.028;2023-01-08T05:02:55;7.90;99.90
21244;DHT22;10780;50.942;4.028;2023-01-08T05:05:21;7.80;99.90
21244;DHT22;10780;50.942;4.028;2023-01-08T05:07:46;7.80;99.90
21244;DHT22;10780;50.942;4.028;2023-01-08T05:10:12;7.90;99.90
21244;DHT22;10780;50.942;4.028;2023-01-08T05:12:37;7.80;99.90
21244;DHT22;10780;50.942;4.028;2023-01-08T05:15:03;7.90;99.90
21244;DHT22;10780;50.942;4.028;2023-01-08T05:17:29;7.80;99.90
21244;DHT22;10780;50.942;4.028;2023-01-08T05:19:55;7.70;99.90
21244;DHT22;10780;50.942;4.028;2023-01-08T05:22:20;7.70;99.90
21244;DHT22;10780;50.942;4.028;2023-01-08T05:24:46;7.70;99.90
21244;DHT22;10780;50.942;4.028;2023-01-08T05:27:11;7.60;99.90
21244;DHT22;10780;50.942;4.028;2023-01-08T05:29:37;7.60;99.90
21244;DHT22;10780;50.942;4.028;2023-01-08T05:32:03;7.50;99.90
21244;DHT22;10780;50.942;4.028;2023-01-08T05:34:28;7.50;99.90
21244;DHT22;10780;50.942;4.028;2023-01-08T05:36:54;7.60;99.90
21244;DHT22;10780;50.942;4.028;2023-01-08T05:39:19;7.60;99.90
21244;DHT22;10780;50.942;4.028;2023-01-08T05:41:45;7.60;99.90
21244;DHT22;10780;50.942;4.028;2023-01-08T05:44:10;7.50;99.90
21244;DHT22;10780;50.942;4.028;2023-01-08T05:46:36;7.50;99.90
21244;DHT22;10780;50.942;4.028;2023-01-08T05:49:02;7.50;99.90
21244;DHT22;10780;50.942;4.028;2023-01-08T05:51:27;7.60;99.90
21244;DHT22;10780;50.942;4.028;2023-01-08T05:53:53;7.60;99.90
21244;DHT22;10780;50.942;4.028;2023-01-08T05:56:18;7.60;99.90
21244;DHT22;10780;50.942;4.028;2023-01-08T05:58:44;7.70;99.90
21244;DHT22;10780;50.942;4.028;2023-01-08T06:01:12;7.70;99.90
21244;DHT22;10780;50.942;4.028;2023-01-08T06:03:40;7.70;99.90
21244;DHT22;10780;50.942;4.028;2023-01-08T06:06:07;7.90;99.90
21244;DHT22;10780;50.942;4.028;2023-01-08T06:08:33;7.90;99.90
21244;DHT22;10780;50.942;4.028;2023-01-08T06:10:59;8.00;99.90
21244;DHT22;10780;50.942;4.028;2023-01-08T06:13:26;8.10;99.90
21244;DHT22;10780;50.942;4.028;2023-01-08T06:15:51;8.10;99.90
21244;DHT22;10780;50.942;4.028;2023-01-08T06:18:17;8.20;99.90
21244;DHT22;10780;50.942;4.028;2023-01-08T06:20:43;8.40;99.90
21244;DHT22;10780;50.942;4.028;2023-01-08T06:23:08;8.40;99.90
21244;DHT22;10780;50.942;4.028;2023-01-08T06:25:35;8.40;99.90
21244;DHT22;10780;50.942;4.028;2023-01-08T06:28:01;8.40;99.90
21244;DHT22;10780;50.942;4.028;2023-01-08T06:30:27;8.30;99.90
21244;DHT22;10780;50.942;4.028;2023-01-08T06:32:59;8.30;99.90
21244;DHT22;10780;50.942;4.028;2023-01-08T06:35:26;8.30;99.90
21244;DHT22;10780;50.942;4.028;2023-01-08T06:37:53;8.20;99.90
21244;DHT22;10780;50.942;4.028;2023-01-08T06:40:19;8.20;99.90
21244;DHT22;10780;50.942;4.028;2023-01-08T06:42:45;8.10;99.90
21244;DHT22;10780;50.942;4.028;2023-01-08T06:45:11;8.10;99.90
21244;DHT22;10780;50.942;4.028;2023-01-08T06:47:36;8.10;99.90
21244;DHT22;10780;50.942;4.028;2023-01-08T06:50:02;8.00;99.90
21244;DHT22;10780;50.942;4.028;2023-01-08T06:52:29;8.00;99.90
21244;DHT22;10780;50.942;4.028;2023-01-08T06:54:54;7.90;99.90
21244;DHT22;10780;50.942;4.028;2023-01-08T06:57:20;7.90;99.90
21244;DHT22;10780;50.942;4.028;2023-01-08T06:59:45;7.90;99.90
21244;DHT22;10780;50.942;4.028;2023-01-08T07:02:15;7.90;99.90
21244;DHT22;10780;50.942;4.028;2023-01-08T07:04:41;7.90;99.90
21244;DHT22;10780;50.942;4.028;2023-01-08T07:07:07;8.00;99.90
21244;DHT22;10780;50.942;4.028;2023-01-08T07:09:34;8.00;99.90
21244;DHT22;10780;50.942;4.028;2023-01-08T07:12:00;8.00;99.90
21244;DHT22;10780;50.942;4.028;2023-01-08T07:14:25;8.00;99.90
21244;DHT22;10780;50.942;4.028;2023-01-08T07:16:51;8.00;99.90
21244;DHT22;10780;50.942;4.028;2023-01-08T07:19:16;8.10;99.90
21244;DHT22;10780;50.942;4.028;2023-01-08T07:21:42;8.00;99.90
21244;DHT22;10780;50.942;4.028;2023-01-08T07:24:08;8.00;99.90
21244;DHT22;10780;50.942;4.028;2023-01-08T07:26:33;8.00;99.90
21244;DHT22;10780;50.942;4.028;2023-01-08T07:28:59;8.00;99.90
21244;DHT22;10780;50.942;4.028;2023-01-08T07:31:25;8.00;99.90
21244;DHT22;10780;50.942;4.028;2023-01-08T07:33:51;8.00;99.90
21244;DHT22;10780;50.942;4.028;2023-01-08T07:36:17;8.10;99.90
21244;DHT22;10780;50.942;4.028;2023-01-08T07:38:50;8.10;99.90
21244;DHT22;10780;50.942;4.028;2023-01-08T07:41:16;8.20;99.90
21244;DHT22;10780;50.942;4.028;2023-01-08T07:43:42;8.20;99.90
21244;DHT22;10780;50.942;4.028;2023-01-08T07:46:08;8.30;99.90
21244;DHT22;10780;50.942;4.028;2023-01-08T07:48:34;8.20;99.90
21244;DHT22;10780;50.942;4.028;2023-01-08T07:51:01;8.00;99.90
21244;DHT22;10780;50.942;4.028;2023-01-08T07:53:27;8.00;99.90
21244;DHT22;10780;50.942;4.028;2023-01-08T07:55:58;8.00;99.90
21244;DHT22;10780;50.942;4.028;2023-01-08T07:58:24;7.90;99.90
21244;DHT22;10780;50.942;4.028;2023-01-08T08:00:50;7.90;99.90
21244;DHT22;10780;50.942;4.028;2023-01-08T08:03:16;8.00;99.90
21244;DHT22;10780;50.942;4.028;2023-01-08T08:05:41;7.90;99.90
21244;DHT22;10780;50.942;4.028;2023-01-08T08:08:11;7.80;99.90
21244;DHT22;10780;50.942;4.028;2023-01-08T08:10:38;7.80;99.90
21244;DHT22;10780;50.942;4.028;2023-01-08T08:13:04;7.80;99.90
21244;DHT22;10780;50.942;4.028;2023-01-08T08:15:30;7.70;99.90
21244;DHT22;10780;50.942;4.028;2023-01-08T08:17:56;7.70;99.90
21244;DHT22;10780;50.942;4.028;2023-01-08T08:20:22;7.80;99.90
21244;DHT22;10780;50.942;4.028;2023-01-08T08:22:48;7.80;99.90
21244;DHT22;10780;50.942;4.028;2023-01-08T08:25:13;7.90;99.90
21244;DHT22;10780;50.942;4.028;2023-01-08T08:27:40;7.90;99.90
21244;DHT22;10780;50.942;4.028;2023-01-08T08:30:06;7.90;99.90
21244;DHT22;10780;50.942;4.028;2023-01-08T08:32:32;8.00;99.90
21244;DHT22;10780;50.942;4.028;2023-01-08T08:34:59;7.90;99.90
21244;DHT22;10780;50.942;4.028;2023-01-08T08:37:25;7.80;99.90
21244;DHT22;10780;50.942;4.028;2023-01-08T08:39:51;7.70;99.90
21244;DHT22;10780;50.942;4.028;2023-01-08T08:42:16;7.80;99.90
21244;DHT22;10780;50.942;4.028;2023-01-08T08:44:42;7.90;99.90
21244;DHT22;10780;50.942;4.028;2023-01-08T08:47:08;8.00;99.90
21244;DHT22;10780;50.942;4.028;2023-01-08T08:49:34;8.00;99.90
21244;DHT22;10780;50.942;4.028;2023-01-08T08:52:01;8.10;99.90
21244;DHT22;10780;50.942;4.028;2023-01-08T08:54:27;8.00;99.90
21244;DHT22;10780;50.942;4.028;2023-01-08T08:56:52;8.10;99.90
21244;DHT22;10780;50.942;4.028;2023-01-08T08:59:18;8.30;99.90
21244;DHT22;10780;50.942;4.028;2023-01-08T09:01:43;8.30;99.90
21244;DHT22;10780;50.942;4.028;2023-01-08T09:04:09;8.40;99.90
21244;DHT22;10780;50.942;4.028;2023-01-08T09:06:35;8.30;99.90
21244;DHT22;10780;50.942;4.028;2023-01-08T09:09:00;8.30;99.90
21244;DHT22;10780;50.942;4.028;2023-01-08T09:11:26;8.40;99.90
21244;DHT22;10780;50.942;4.028;2023-01-08T09:13:52;8.50;99.90
21244;DHT22;10780;50.942;4.028;2023-01-08T09:16:17;8.50;99.90
21244;DHT22;10780;50.942;4.028;2023-01-08T09:18:43;8.50;99.90
21244;DHT22;10780;50.942;4.028;2023-01-08T09:21:09;8.50;99.90
21244;DHT22;10780;50.942;4.028;2023-01-08T09:23:35;8.40;99.90
21244;DHT22;10780;50.942;4.028;2023-01-08T09:26:02;8.40;99.90
21244;DHT22;10780;50.942;4.028;2023-01-08T09:28:28;8.60;99.90
21244;DHT22;10780;50.942;4.028;2023-01-08T09:30:54;8.60;99.90
21244;DHT22;10780;50.942;4.028;2023-01-08T09:33:19;8.60;99.90
21244;DHT22;10780;50.942;4.028;2023-01-08T09:35:45;8.70;99.90
21244;DHT22;10780;50.942;4.028;2023-01-08T09:38:11;8.60;99.90
21244;DHT22;10780;50.942;4.028;2023-01-08T09:40:54;8.70;99.90
21244;DHT22;10780;50.942;4.028;2023-01-08T09:43:20;8.70;99.90
21244;DHT22;10780;50.942;4.028;2023-01-08T09:45:53;8.80;99.90
21244;DHT22;10780;50.942;4.028;2023-01-08T09:48:25;8.80;99.90
21244;DHT22;10780;50.942;4.028;2023-01-08T09:50:52;8.90;99.90
21244;DHT22;10780;50.942;4.028;2023-01-08T09:53:18;8.90;99.90
21244;DHT22;10780;50.942;4.028;2023-01-08T09:55:48;9.00;99.90
21244;DHT22;10780;50.942;4.028;2023-01-08T09:58:38;8.90;99.90
21244;DHT22;10780;50.942;4.028;2023-01-08T10:01:05;9.00;99.90
21244;DHT22;10780;50.942;4.028;2023-01-08T10:03:44;9.10;99.90
21244;DHT22;10780;50.942;4.028;2023-01-08T10:06:13;9.10;99.90
21244;DHT22;10780;50.942;4.028;2023-01-08T10:08:39;9.10;99.90
21244;DHT22;10780;50.942;4.028;2023-01-08T10:11:06;9.00;99.90
21244;DHT22;10780;50.942;4.028;2023-01-08T10:13:34;9.10;99.90
21244;DHT22;10780;50.942;4.028;2023-01-08T10:16:03;9.10;99.90
21244;DHT22;10780;50.942;4.028;2023-01-08T10:18:32;9.00;99.90
21244;DHT22;10780;50.942;4.028;2023-01-08T10:20:57;9.10;99.90
21244;DHT22;10780;50.942;4.028;2023-01-08T10:23:23;9.10;99.90
21244;DHT22;10780;50.942;4.028;2023-01-08T10:25:55;9.20;99.90
21244;DHT22;10780;50.942;4.028;2023-01-08T10:28:26;9.20;99.90
21244;DHT22;10780;50.942;4.028;2023-01-08T10:30:57;9.20;99.90
21244;DHT22;10780;50.942;4.028;2023-01-08T10:33:38;9.20;99.90
21244;DHT22;10780;50.942;4.028;2023-01-08T10:36:07;9.20;99.90
21244;DHT22;10780;50.942;4.028;2023-01-08T10:38:39;9.10;99.90
21244;DHT22;10780;50.942;4.028;2023-01-08T10:41:09;9.10;99.90
21244;DHT22;10780;50.942;4.028;2023-01-08T10:46:42;9.30;99.90
21244;DHT22;10780;50.942;4.028;2023-01-08T10:49:17;9.40;99.90
21244;DHT22;10780;50.942;4.028;2023-01-08T10:51:50;9.50;99.90
21244;DHT22;10780;50.942;4.028;2023-01-08T10:54:35;9.50;99.90
21244;DHT22;10780;50.942;4.028;2023-01-08T10:57:02;9.50;99.90
21244;DHT22;10780;50.942;4.028;2023-01-08T10:59:28;9.50;99.90
21244;DHT22;10780;50.942;4.028;2023-01-08T11:01:55;9.50;99.90
21244;DHT22;10780;50.942;4.028;2023-01-08T11:04:30;9.50;99.90
21244;DHT22;10780;50.942;4.028;2023-01-08T11:07:00;9.60;99.90
21244;DHT22;10780;50.942;4.028;2023-01-08T11:09:33;9.60;99.90
21244;DHT22;10780;50.942;4.028;2023-01-08T11:11:59;9.70;99.90
21244;DHT22;10780;50.942;4.028;2023-01-08T11:14:31;9.70;99.90
21244;DHT22;10780;50.942;4.028;2023-01-08T11:16:58;9.60;99.90
21244;DHT22;10780;50.942;4.028;2023-01-08T11:19:26;9.70;99.90
21244;DHT22;10780;50.942;4.028;2023-01-08T11:21:55;9.70;99.90
21244;DHT22;10780;50.942;4.028;2023-01-08T11:26:55;9.80;99.90
21244;DHT22;10780;50.942;4.028;2023-01-08T11:35:08;9.80;99.90
21244;DHT22;10780;50.942;4.028;2023-01-08T11:37:39;9.80;99.90
21244;DHT22;10780;50.942;4.028;2023-01-08T11:40:30;9.80;99.90
21244;DHT22;10780;50.942;4.028;2023-01-08T11:52:22;10.00;99.90
21244;DHT22;10780;50.942;4.028;2023-01-08T12:03:32;10.50;99.90
21244;DHT22;10780;50.942;4.028;2023-01-08T12:06:10;10.50;99.90
21244;DHT22;10780;50.942;4.028;2023-01-08T12:11:35;10.40;99.90
21244;DHT22;10780;50.942;4.028;2023-01-08T12:16:52;10.20;99.90
21244;DHT22;10780;50.942;4.028;2023-01-08T12:22:04;10.10;99.90
21244;DHT22;10780;50.942;4.028;2023-01-08T12:25:19;10.10;99.90
21244;DHT22;10780;50.942;4.028;2023-01-08T12:27:50;10.30;99.90
21244;DHT22;10780;50.942;4.028;2023-01-08T12:30:37;10.30;99.90
21244;DHT22;10780;50.942;4.028;2023-01-08T12:33:14;10.30;99.90
21244;DHT22;10780;50.942;4.028;2023-01-08T12:35:46;10.40;99.90
21244;DHT22;10780;50.942;4.028;2023-01-08T12:38:32;10.60;99.90
21244;DHT22;10780;50.942;4.028;2023-01-08T12:41:11;10.60;99.90
21244;DHT22;10780;50.942;4.028;2023-01-08T12:46:17;10.70;99.90
21244;DHT22;10780;50.942;4.028;2023-01-08T12:48:48;10.70;99.90
21244;DHT22;10780;50.942;4.028;2023-01-08T12:51:27;10.70;99.90
21244;DHT22;10780;50.942;4.028;2023-01-08T12:57:20;10.60;99.90
21244;DHT22;10780;50.942;4.028;2023-01-08T13:02:58;10.50;99.90
21244;DHT22;10780;50.942;4.028;2023-01-08T13:07:56;10.70;99.90
21244;DHT22;10780;50.942;4.028;2023-01-08T13:10:38;10.70;99.90
21244;DHT22;10780;50.942;4.028;2023-01-08T13:13:06;10.70;99.90
21244;DHT22;10780;50.942;4.028;2023-01-08T13:15:33;10.70;99.90
21244;DHT22;10780;50.942;4.028;2023-01-08T13:18:14;10.70;99.90
21244;DHT22;10780;50.942;4.028;2023-01-08T13:20:40;10.80;99.90
21244;DHT22;10780;50.942;4.028;2023-01-08T13:23:06;10.80;99.90
21244;DHT22;10780;50.942;4.028;2023-01-08T13:25:36;10.80;99.90
21244;DHT22;10780;50.942;4.028;2023-01-08T13:28:42;11.00;99.90
21244;DHT22;10780;50.942;4.028;2023-01-08T13:33:48;11.10;99.90
21244;DHT22;10780;50.942;4.028;2023-01-08T13:36:25;11.00;99.90
21244;DHT22;10780;50.942;4.028;2023-01-08T13:44:37;10.70;99.90
21244;DHT22;10780;50.942;4.028;2023-01-08T13:47:40;10.50;99.90
21244;DHT22;10780;50.942;4.028;2023-01-08T13:50:04;10.60;99.90
21244;DHT22;10780;50.942;4.028;2023-01-08T13:52:43;10.80;99.90
21244;DHT22;10780;50.942;4.028;2023-01-08T13:55:31;10.90;99.90
21244;DHT22;10780;50.942;4.028;2023-01-08T13:58:06;11.00;99.90
21244;DHT22;10780;50.942;4.028;2023-01-08T14:03:37;11.20;99.90
21244;DHT22;10780;50.942;4.028;2023-01-08T14:08:32;11.40;99.90
21244;DHT22;10780;50.942;4.028;2023-01-08T14:10:57;11.20;99.90
21244;DHT22;10780;50.942;4.028;2023-01-08T14:13:28;11.10;99.90
21244;DHT22;10780;50.942;4.028;2023-01-08T14:15:58;11.00;99.90
21244;DHT22;10780;50.942;4.028;2023-01-08T14:18:26;11.00;99.90
21244;DHT22;10780;50.942;4.028;2023-01-08T14:20:53;11.00;99.90
21244;DHT22;10780;50.942;4.028;2023-01-08T14:23:33;11.00;99.90
21244;DHT22;10780;50.942;4.028;2023-01-08T14:26:05;11.00;99.90
21244;DHT22;10780;50.942;4.028;2023-01-08T14:28:33;11.10;99.90
21244;DHT22;10780;50.942;4.028;2023-01-08T14:30:58;11.00;99.90
21244;DHT22;10780;50.942;4.028;2023-01-08T14:33:35;11.20;99.90
21244;DHT22;10780;50.942;4.028;2023-01-08T14:36:02;11.10;99.90
21244;DHT22;10780;50.942;4.028;2023-01-08T14:38:29;10.80;99.90
21244;DHT22;10780;50.942;4.028;2023-01-08T14:41:14;10.70;99.90
21244;DHT22;10780;50.942;4.028;2023-01-08T14:43:47;10.60;99.90
21244;DHT22;10780;50.942;4.028;2023-01-08T14:46:21;10.60;99.90
21244;DHT22;10780;50.942;4.028;2023-01-08T14:48:50;10.50;99.90
21244;DHT22;10780;50.942;4.028;2023-01-08T14:51:22;10.40;99.90
21244;DHT22;10780;50.942;4.028;2023-01-08T14:53:52;10.40;99.90
21244;DHT22;10780;50.942;4.028;2023-01-08T14:56:25;10.60;99.90
21244;DHT22;10780;50.942;4.028;2023-01-08T14:58:52;10.80;99.90
21244;DHT22;10780;50.942;4.028;2023-01-08T15:01:25;10.70;99.90
21244;DHT22;10780;50.942;4.028;2023-01-08T15:04:03;10.70;99.90
21244;DHT22;10780;50.942;4.028;2023-01-08T15:06:31;10.80;99.90
21244;DHT22;10780;50.942;4.028;2023-01-08T15:08:57;10.80;99.90
21244;DHT22;10780;50.942;4.028;2023-01-08T15:11:29;10.80;99.90
21244;DHT22;10780;50.942;4.028;2023-01-08T15:13:55;10.60;99.90
21244;DHT22;10780;50.942;4.028;2023-01-08T15:16:39;10.50;99.90
21244;DHT22;10780;50.942;4.028;2023-01-08T15:21:37;10.30;99.90
21244;DHT22;10780;50.942;4.028;2023-01-08T15:24:05;10.40;99.90
21244;DHT22;10780;50.942;4.028;2023-01-08T15:26:32;10.60;99.90
21244;DHT22;10780;50.942;4.028;2023-01-08T15:29:04;10.60;99.90
21244;DHT22;10780;50.942;4.028;2023-01-08T15:34:08;10.60;99.90
21244;DHT22;10780;50.942;4.028;2023-01-08T15:36:33;10.40;99.90
21244;DHT22;10780;50.942;4.028;2023-01-08T15:38:59;10.40;99.90
21244;DHT22;10780;50.942;4.028;2023-01-08T15:41:32;10.40;99.90
21244;DHT22;10780;50.942;4.028;2023-01-08T15:44:22;10.40;99.90
21244;DHT22;10780;50.942;4.028;2023-01-08T15:46:48;10.40;99.90
21244;DHT22;10780;50.942;4.028;2023-01-08T15:49:13;10.40;99.90
21244;DHT22;10780;50.942;4.028;2023-01-08T15:51:42;10.40;99.90
21244;DHT22;10780;50.942;4.028;2023-01-08T15:54:10;10.50;99.90
21244;DHT22;10780;50.942;4.028;2023-01-08T15:56:37;10.50;99.90
21244;DHT22;10780;50.942;4.028;2023-01-08T15:59:02;10.50;99.90
21244;DHT22;10780;50.942;4.028;2023-01-08T16:01:28;10.50;99.90
21244;DHT22;10780;50.942;4.028;2023-01-08T16:03:55;10.40;99.90
21244;DHT22;10780;50.942;4.028;2023-01-08T16:06:20;10.20;99.90
21244;DHT22;10780;50.942;4.028;2023-01-08T16:08:46;10.30;99.90
21244;DHT22;10780;50.942;4.028;2023-01-08T16:11:12;10.40;99.90
21244;DHT22;10780;50.942;4.028;2023-01-08T16:13:38;10.40;99.90
21244;DHT22;10780;50.942;4.028;2023-01-08T16:16:08;10.40;99.90
21244;DHT22;10780;50.942;4.028;2023-01-08T16:18:36;10.40;99.90
21244;DHT22;10780;50.942;4.028;2023-01-08T16:21:02;10.40;99.90
21244;DHT22;10780;50.942;4.028;2023-01-08T16:23:28;10.30;99.90
21244;DHT22;10780;50.942;4.028;2023-01-08T16:25:54;10.40;99.90
21244;DHT22;10780;50.942;4.028;2023-01-08T16:28:19;10.30;99.90
21244;DHT22;10780;50.942;4.028;2023-01-08T16:30:45;10.30;99.90
21244;DHT22;10780;50.942;4.028;2023-01-08T16:33:10;10.20;99.90
21244;DHT22;10780;50.942;4.028;2023-01-08T16:35:36;9.90;99.90
21244;DHT22;10780;50.942;4.028;2023-01-08T16:38:02;9.80;99.90
21244;DHT22;10780;50.942;4.028;2023-01-08T16:40:27;9.70;99.90
21244;DHT22;10780;50.942;4.028;2023-01-08T16:42:59;9.60;99.90
21244;DHT22;10780;50.942;4.028;2023-01-08T16:45:26;9.60;99.90
21244;DHT22;10780;50.942;4.028;2023-01-08T16:47:51;9.60;99.90
21244;DHT22;10780;50.942;4.028;2023-01-08T16:50:17;9.60;99.90
21244;DHT22;10780;50.942;4.028;2023-01-08T16:52:43;9.60;99.90
21244;DHT22;10780;50.942;4.028;2023-01-08T16:55:09;9.70;99.90
21244;DHT22;10780;50.942;4.028;2023-01-08T16:57:35;9.70;99.90
21244;DHT22;10780;50.942;4.028;2023-01-08T17:00:02;9.70;99.90
21244;DHT22;10780;50.942;4.028;2023-01-08T17:02:28;9.80;99.90
21244;DHT22;10780;50.942;4.028;2023-01-08T17:04:53;9.70;99.90
21244;DHT22;10780;50.942;4.028;2023-01-08T17:07:19;9.80;99.90
21244;DHT22;10780;50.942;4.028;2023-01-08T17:09:44;9.90;99.90
21244;DHT22;10780;50.942;4.028;2023-01-08T17:12:10;9.90;99.90